Time;durP1;ratioP1;P1;durP2;ratioP2;P2;SDS_P1;SDS_P2;PMS_P1;PMS_P2;Temp;Humidity;BMP_temperature;BMP_pressure;BME280_temperature;BME280_humidity;BME280_pressure;Samples;Min_cycle;Max_cycle;Signal;HPM_P1;HPM_P2
2021/01/31 00:00:38;;;;;;;76.35;29.65;;;2.10;99.90;;;;;;5093266;28;20028;-77
2021/01/31 00:03:07;;;;;;;101.53;30.17;;;2.20;99.90;;;;;;5079445;28;20104;-77
2021/01/31 00:05:33;;;;;;;117.10;38.00;;;2.10;99.90;;;;;;5093160;28;20028;-77
2021/01/31 00:07:59;;;;;;;104.55;32.42;;;2.10;99.90;;;;;;5093143;28;20031;-78
2021/01/31 00:10:28;;;;;;;107.25;33.60;;;2.10;99.90;;;;;;5093963;28;20063;-78
2021/01/31 00:12:55;;;;;;;81.65;29.58;;;2.10;99.90;;;;;;5075357;28;20131;-78
2021/01/31 00:15:23;;;;;;;113.32;37.75;;;2.10;99.90;;;;;;5075990;28;20038;-78
2021/01/31 00:17:49;;;;;;;82.70;29.50;;;2.10;99.90;;;;;;5077545;28;20058;-78
2021/01/31 00:20:17;;;;;;;119.30;36.03;;;2.10;99.90;;;;;;5074917;28;20032;-77
2021/01/31 00:22:43;;;;;;;134.38;42.38;;;2.10;99.90;;;;;;5092901;28;20024;-77
2021/01/31 00:25:10;;;;;;;135.77;41.03;;;2.10;99.90;;;;;;5092817;28;20024;-77
2021/01/31 00:27:35;;;;;;;141.05;41.78;;;2.10;99.90;;;;;;5067125;28;20481;-79
2021/01/31 00:30:04;;;;;;;134.35;39.78;;;2.10;99.90;;;;;;5096223;28;20028;-78
2021/01/31 00:32:30;;;;;;;68.47;26.50;;;2.10;99.90;;;;;;5078693;28;20033;-78
2021/01/31 00:34:57;;;;;;;72.32;26.98;;;2.10;99.90;;;;;;5089339;28;20028;-78
2021/01/31 00:37:23;;;;;;;69.90;25.63;;;2.10;99.90;;;;;;5078770;28;20085;-78
2021/01/31 00:39:51;;;;;;;77.35;27.15;;;2.20;99.90;;;;;;5097042;28;20480;-70
2021/01/31 00:42:18;;;;;;;81.30;32.72;;;2.10;99.90;;;;;;5078779;28;20054;-77
2021/01/31 00:44:46;;;;;;;102.13;41.58;;;2.10;99.90;;;;;;5078740;28;20028;-79
2021/01/31 00:47:14;;;;;;;112.38;41.55;;;2.20;99.90;;;;;;5096398;28;20056;-77
2021/01/31 00:49:40;;;;;;;87.50;33.85;;;2.20;99.90;;;;;;5096710;28;20020;-78
2021/01/31 00:52:05;;;;;;;80.05;29.10;;;2.10;99.90;;;;;;5078630;28;20032;-78
2021/01/31 00:54:31;;;;;;;68.65;25.38;;;2.20;99.90;;;;;;5096996;28;20027;-79
2021/01/31 00:56:57;;;;;;;74.53;27.60;;;2.20;99.90;;;;;;5096998;28;20070;-79
2021/01/31 00:59:23;;;;;;;89.15;27.80;;;2.20;99.90;;;;;;5078053;28;20032;-79
2021/01/31 01:01:48;;;;;;;100.90;28.90;;;2.20;99.90;;;;;;5096632;28;20024;-78
2021/01/31 01:04:14;;;;;;;117.60;33.90;;;2.20;99.90;;;;;;5096308;28;20106;-79
2021/01/31 01:06:40;;;;;;;125.82;33.38;;;2.20;99.90;;;;;;5078189;28;20043;-78
2021/01/31 01:09:05;;;;;;;70.18;26.05;;;2.20;99.90;;;;;;5096597;28;20028;-78
2021/01/31 01:11:31;;;;;;;76.43;29.50;;;2.20;99.90;;;;;;5078196;28;20028;-77
2021/01/31 01:13:57;;;;;;;67.00;27.52;;;2.20;99.90;;;;;;5096240;28;20485;-77
2021/01/31 01:16:22;;;;;;;71.75;28.38;;;2.30;99.90;;;;;;5096163;28;20020;-77
2021/01/31 01:18:48;;;;;;;75.88;28.45;;;2.30;99.90;;;;;;5078023;28;20086;-77
2021/01/31 01:21:15;;;;;;;117.80;34.80;;;2.30;99.90;;;;;;5094107;28;20024;-77
2021/01/31 01:23:41;;;;;;;136.25;37.45;;;2.30;99.90;;;;;;5096397;28;20052;-76
2021/01/31 01:26:07;;;;;;;163.25;38.80;;;2.20;99.90;;;;;;5095771;28;20024;-77
2021/01/31 01:28:33;;;;;;;177.90;41.53;;;2.30;99.90;;;;;;5096296;28;20035;-78
2021/01/31 01:30:59;;;;;;;216.00;45.92;;;2.30;99.90;;;;;;5096113;28;20032;-77
2021/01/31 01:33:25;;;;;;;193.98;43.30;;;2.30;99.90;;;;;;5096209;28;20136;-78
2021/01/31 01:35:50;;;;;;;146.00;38.45;;;2.30;99.90;;;;;;5095941;28;20031;-77
2021/01/31 01:38:16;;;;;;;125.55;35.38;;;2.30;99.90;;;;;;5095720;28;20063;-77
2021/01/31 01:40:42;;;;;;;108.55;33.95;;;2.30;99.90;;;;;;5094872;28;20458;-77
2021/01/31 01:43:15;;;;;;;94.82;31.45;;;2.30;99.90;;;;;;5095986;28;20028;-78
2021/01/31 01:45:41;;;;;;;95.35;30.88;;;2.30;99.90;;;;;;5095476;28;20460;-77
2021/01/31 01:48:17;;;;;;;70.80;29.58;;;2.30;99.90;;;;;;5095616;28;20139;-77
2021/01/31 01:50:52;;;;;;;72.28;28.48;;;2.30;99.90;;;;;;5095830;28;20024;-77
2021/01/31 01:53:20;;;;;;;62.65;27.33;;;2.30;99.90;;;;;;5095622;28;20517;-78
2021/01/31 01:56:11;;;;;;;56.08;26.40;;;2.40;99.90;;;;;;5095560;28;20035;-77
2021/01/31 01:58:37;;;;;;;47.05;24.25;;;2.40;99.90;;;;;;5087394;28;20565;-77
2021/01/31 02:01:03;;;;;;;51.67;23.85;;;2.40;99.90;;;;;;5095769;28;20051;-77
2021/01/31 02:03:33;;;;;;;49.70;25.88;;;2.40;99.90;;;;;;5077495;28;20020;-78
2021/01/31 02:06:06;;;;;;;52.08;25.17;;;2.40;99.90;;;;;;5095010;28;20449;-78
2021/01/31 02:08:32;;;;;;;48.75;24.17;;;2.50;99.90;;;;;;5095422;28;20032;-78
2021/01/31 02:10:57;;;;;;;50.47;26.23;;;2.40;99.90;;;;;;5095100;28;20461;-72
2021/01/31 02:13:24;;;;;;;54.40;25.17;;;2.50;99.90;;;;;;5095879;28;20477;-78
2021/01/31 02:15:52;;;;;;;48.83;24.90;;;2.50;99.90;;;;;;5095662;28;20099;-73
2021/01/31 02:18:32;;;;;;;47.35;25.45;;;2.50;99.90;;;;;;5094991;28;20036;-78
2021/01/31 02:21:31;;;;;;;49.30;24.10;;;2.40;99.90;;;;;;5077083;28;20064;-77
2021/01/31 02:24:33;;;;;;;48.58;25.38;;;2.40;99.90;;;;;;5078926;28;20024;-78
2021/01/31 02:27:32;;;;;;;49.90;27.65;;;2.40;99.90;;;;;;5012696;28;20030;-78
2021/01/31 02:30:00;;;;;;;51.92;27.85;;;2.40;99.90;;;;;;5085851;28;20412;-78
2021/01/31 02:32:47;;;;;;;53.45;26.23;;;2.40;99.90;;;;;;5094786;28;20016;-78
2021/01/31 02:35:24;;;;;;;45.05;25.45;;;2.40;99.90;;;;;;5094761;28;20036;-78
2021/01/31 02:37:59;;;;;;;51.20;24.35;;;2.30;99.90;;;;;;5076407;28;20601;-77
2021/01/31 02:40:29;;;;;;;48.95;24.27;;;2.30;99.90;;;;;;5095080;28;20103;-78
2021/01/31 02:42:57;;;;;;;53.92;24.48;;;2.20;99.90;;;;;;5095005;28;20475;-78
2021/01/31 02:45:37;;;;;;;39.70;21.25;;;2.30;99.90;;;;;;5094934;28;20051;-78
2021/01/31 02:48:13;;;;;;;45.47;22.65;;;2.20;99.90;;;;;;5094349;28;20052;-78
2021/01/31 02:51:01;;;;;;;42.75;21.63;;;2.20;99.90;;;;;;5076359;28;20024;-78
2021/01/31 02:53:41;;;;;;;47.95;24.17;;;2.20;99.90;;;;;;5093703;28;20039;-78
2021/01/31 02:56:37;;;;;;;43.35;22.75;;;2.30;99.90;;;;;;5080838;28;20024;-78
2021/01/31 02:59:10;;;;;;;46.28;21.77;;;2.20;99.90;;;;;;5082905;28;20078;-78
2021/01/31 03:01:47;;;;;;;46.10;23.02;;;2.20;99.90;;;;;;5094768;28;20483;-78
2021/01/31 03:04:26;;;;;;;49.20;24.45;;;2.30;99.90;;;;;;5093961;28;20020;-78
2021/01/31 03:06:59;;;;;;;40.30;21.40;;;2.20;99.90;;;;;;5076210;28;20106;-78
2021/01/31 03:09:46;;;;;;;34.20;16.13;;;2.20;99.90;;;;;;5094589;28;20024;-78
2021/01/31 03:12:33;;;;;;;29.90;15.82;;;2.20;99.90;;;;;;5075809;28;20059;-78
2021/01/31 03:15:05;;;;;;;27.00;15.05;;;2.20;99.90;;;;;;5082233;28;20028;-78
2021/01/31 03:17:35;;;;;;;25.83;14.88;;;2.20;99.90;;;;;;5075584;28;20093;-78
2021/01/31 03:20:16;;;;;;;28.90;15.00;;;2.20;99.90;;;;;;5093772;28;20481;-78
2021/01/31 03:23:05;;;;;;;29.63;15.18;;;2.10;99.90;;;;;;5093947;28;20043;-77
2021/01/31 03:25:56;;;;;;;29.33;15.23;;;2.20;99.90;;;;;;5063952;28;20032;-78
2021/01/31 03:28:22;;;;;;;30.15;17.55;;;2.20;99.90;;;;;;5082673;28;20091;-77
2021/01/31 03:30:48;;;;;;;34.58;17.08;;;2.20;99.90;;;;;;5093960;28;20027;-77
2021/01/31 03:33:25;;;;;;;35.38;19.05;;;2.10;99.90;;;;;;5075304;28;20024;-76
2021/01/31 03:35:53;;;;;;;40.38;20.50;;;2.10;99.90;;;;;;5093572;28;20481;-75
2021/01/31 03:38:25;;;;;;;38.53;20.45;;;1.90;99.90;;;;;;5075137;28;20112;-77
2021/01/31 03:40:54;;;;;;;32.63;17.10;;;1.80;99.90;;;;;;5075711;28;20487;-77
2021/01/31 03:43:21;;;;;;;29.85;17.17;;;1.70;99.90;;;;;;5075599;28;20031;-77
2021/01/31 03:45:58;;;;;;;32.70;17.80;;;1.50;99.90;;;;;;5093434;28;20107;-77
2021/01/31 03:48:27;;;;;;;33.78;18.50;;;1.40;99.90;;;;;;5093272;28;20126;-78
2021/01/31 03:50:53;;;;;;;34.30;17.60;;;1.30;99.90;;;;;;5093314;28;20023;-77
2021/01/31 03:53:19;;;;;;;36.63;18.52;;;1.10;99.90;;;;;;5075597;28;20439;-77
2021/01/31 03:55:45;;;;;;;31.40;17.50;;;1.00;99.90;;;;;;5093664;28;20022;-76
2021/01/31 03:58:15;;;;;;;30.75;16.67;;;0.80;99.90;;;;;;5075088;28;20031;-77
2021/01/31 04:00:51;;;;;;;31.02;15.77;;;0.70;99.90;;;;;;5075129;28;20048;-76
2021/01/31 04:03:25;;;;;;;31.80;17.27;;;0.60;99.90;;;;;;5092700;28;20454;-77
2021/01/31 04:05:59;;;;;;;32.65;19.13;;;0.60;99.90;;;;;;5093134;28;20397;-75
2021/01/31 04:08:29;;;;;;;30.73;16.03;;;0.50;99.90;;;;;;5075273;28;20036;-76
2021/01/31 04:10:55;;;;;;;33.17;17.13;;;0.40;99.90;;;;;;5074980;28;20273;-77
2021/01/31 04:13:22;;;;;;;35.15;17.13;;;0.30;99.90;;;;;;5093131;28;20032;-76
2021/01/31 04:15:51;;;;;;;34.17;17.42;;;0.20;99.90;;;;;;5074813;28;20405;-76
2021/01/31 04:18:19;;;;;;;33.47;17.70;;;0.20;99.90;;;;;;5093035;28;20500;-77
2021/01/31 04:20:45;;;;;;;30.90;16.60;;;0.10;99.90;;;;;;5093379;28;20052;-77
2021/01/31 04:23:11;;;;;;;33.35;18.13;;;0.10;99.90;;;;;;5092731;28;20020;-77
2021/01/31 04:25:38;;;;;;;35.78;18.70;;;0.00;99.90;;;;;;5093413;28;20026;-78
2021/01/31 04:28:22;;;;;;;34.45;18.92;;;-0.10;99.90;;;;;;5092497;28;20024;-77
2021/01/31 04:30:55;;;;;;;34.22;18.42;;;-0.20;99.90;;;;;;5081423;28;20095;-78
2021/01/31 04:33:21;;;;;;;35.22;18.13;;;-0.30;99.90;;;;;;5092806;28;20081;-78
2021/01/31 04:35:47;;;;;;;32.65;18.73;;;-0.30;99.90;;;;;;5093079;28;20459;-78
2021/01/31 04:38:12;;;;;;;36.35;18.73;;;-0.40;99.90;;;;;;5092537;28;20125;-77
2021/01/31 04:40:38;;;;;;;34.83;19.20;;;-0.40;99.90;;;;;;5074389;28;20024;-77
2021/01/31 04:43:10;;;;;;;38.28;19.13;;;-0.40;99.90;;;;;;5075035;28;20035;-77
2021/01/31 04:45:38;;;;;;;37.17;18.33;;;-0.40;99.90;;;;;;5092846;28;20036;-77
2021/01/31 04:48:25;;;;;;;34.30;18.17;;;-0.50;99.90;;;;;;5092591;28;20087;-77
2021/01/31 04:51:39;;;;;;;38.25;17.77;;;-0.50;99.90;;;;;;5092613;28;20176;-77
2021/01/31 04:54:23;;;;;;;33.35;17.58;;;-0.50;99.90;;;;;;5017556;28;20034;-77
2021/01/31 04:56:55;;;;;;;32.40;16.38;;;-0.50;99.90;;;;;;5085399;28;20032;-76
2021/01/31 04:59:35;;;;;;;33.13;17.27;;;-0.50;99.90;;;;;;5074129;28;20423;-75
2021/01/31 05:02:10;;;;;;;29.17;15.85;;;-0.50;99.90;;;;;;5092769;28;20103;-77
2021/01/31 05:04:55;;;;;;;28.40;15.32;;;-0.60;99.90;;;;;;5079391;28;20039;-76
2021/01/31 05:07:57;;;;;;;27.80;15.18;;;-0.60;99.90;;;;;;5092797;28;20026;-76
2021/01/31 05:10:25;;;;;;;25.77;14.13;;;-0.60;99.90;;;;;;5075098;28;20041;-77
2021/01/31 05:13:15;;;;;;;27.92;13.48;;;-0.60;99.90;;;;;;5074639;28;20422;-77
2021/01/31 05:16:12;;;;;;;26.05;14.45;;;-0.60;99.90;;;;;;5075369;28;20029;-77
2021/01/31 05:18:39;;;;;;;;;;;-0.70;99.90;;;;;;5086980;28;20034;-77
2021/01/31 05:21:09;;;;;;;27.88;13.48;;;-0.70;99.90;;;;;;5096221;28;19904;-76
2021/01/31 05:23:42;;;;;;;22.60;13.20;;;-0.70;99.90;;;;;;5078070;28;20462;-77
2021/01/31 05:26:11;;;;;;;22.88;13.07;;;-0.70;99.90;;;;;;5095761;28;20024;-77
2021/01/31 05:28:41;;;;;;;26.02;14.48;;;-0.70;99.90;;;;;;5077612;28;20035;-76
2021/01/31 05:31:12;;;;;;;23.17;12.07;;;-0.70;99.90;;;;;;5096300;28;20049;-77
2021/01/31 05:33:54;;;;;;;24.45;13.05;;;-0.70;99.90;;;;;;5077839;28;20378;-77
2021/01/31 05:36:21;;;;;;;21.45;12.65;;;-0.70;99.90;;;;;;5078157;28;20028;-77
2021/01/31 05:38:48;;;;;;;22.60;12.77;;;-0.70;99.90;;;;;;5095722;28;20028;-76
2021/01/31 05:41:35;;;;;;;20.92;11.45;;;-0.70;99.90;;;;;;5077631;28;20032;-76
2021/01/31 05:44:07;;;;;;;18.10;10.80;;;-0.70;99.90;;;;;;5095137;28;20423;-76
2021/01/31 05:46:38;;;;;;;19.15;10.45;;;-0.70;99.90;;;;;;5095663;28;20073;-75
2021/01/31 05:49:06;;;;;;;18.98;10.75;;;-0.70;99.90;;;;;;5095358;28;20032;-76
2021/01/31 05:51:34;;;;;;;22.27;10.95;;;-0.60;99.90;;;;;;5095519;28;20024;-75
2021/01/31 05:54:32;;;;;;;18.90;10.48;;;-0.60;99.90;;;;;;5095401;28;20043;-76
2021/01/31 05:56:57;;;;;;;16.05;10.20;;;-0.60;99.90;;;;;;5069926;28;20406;-75
2021/01/31 05:59:23;;;;;;;16.33;9.25;;;-0.60;99.90;;;;;;5074985;28;20115;-74
2021/01/31 06:02:02;;;;;;;20.30;9.85;;;-0.60;99.90;;;;;;5076867;28;20020;-75
2021/01/31 06:04:28;;;;;;;17.95;10.02;;;-0.60;99.90;;;;;;5077051;28;20023;-76
2021/01/31 06:07:10;;;;;;;16.35;9.40;;;-0.50;99.90;;;;;;5095659;28;20505;-76
2021/01/31 06:09:47;;;;;;;17.40;10.05;;;-0.50;99.90;;;;;;5077123;28;20035;-76
2021/01/31 06:12:23;;;;;;;16.88;10.50;;;-0.50;99.90;;;;;;5095106;28;20031;-76
2021/01/31 06:15:06;;;;;;;14.90;8.75;;;-0.50;99.80;;;;;;5077565;28;20466;-78
2021/01/31 06:17:33;;;;;;;17.63;9.00;;;-0.50;99.90;;;;;;5076728;28;20028;-77
2021/01/31 06:20:06;;;;;;;15.63;8.82;;;-0.50;99.90;;;;;;5076356;28;20032;-77
2021/01/31 06:22:41;;;;;;;15.80;9.02;;;-0.40;99.90;;;;;;5076391;28;20028;-75
2021/01/31 06:25:11;;;;;;;15.82;10.07;;;-0.40;99.90;;;;;;5095206;28;20074;-78
2021/01/31 06:27:37;;;;;;;15.90;8.63;;;-0.30;99.90;;;;;;5076251;28;20028;-73
2021/01/31 06:30:07;;;;;;;16.17;8.98;;;-0.20;99.90;;;;;;5094468;28;20031;-76
2021/01/31 06:32:34;;;;;;;15.77;8.75;;;-0.20;99.90;;;;;;5095242;28;20023;-77
2021/01/31 06:35:06;;;;;;;14.27;8.88;;;-0.20;99.90;;;;;;5094729;28;20458;-77
2021/01/31 06:37:56;;;;;;;16.13;8.98;;;-0.10;99.90;;;;;;5095206;28;20497;-77
2021/01/31 06:40:59;;;;;;;14.30;8.63;;;0.00;99.90;;;;;;5094464;28;20374;-77
2021/01/31 06:43:30;;;;;;;14.18;8.10;;;0.10;99.90;;;;;;5094481;28;20050;-75
2021/01/31 06:46:18;;;;;;;18.02;9.40;;;0.20;99.90;;;;;;5094573;28;20028;-77
2021/01/31 06:48:43;;;;;;;15.75;9.20;;;0.20;99.90;;;;;;5094686;28;20051;-77
2021/01/31 06:51:47;;;;;;;15.98;9.38;;;0.20;99.90;;;;;;5076478;28;20020;-77
2021/01/31 06:54:53;;;;;;;15.95;10.25;;;0.30;99.90;;;;;;5075603;28;20126;-77
2021/01/31 06:57:51;;;;;;;14.77;8.93;;;0.30;99.90;;;;;;5094354;28;20107;-77
2021/01/31 07:00:26;;;;;;;16.02;9.00;;;0.40;99.90;;;;;;5042586;28;20049;-77
2021/01/31 07:03:10;;;;;;;14.50;8.53;;;0.40;99.90;;;;;;5080536;28;20081;-77
2021/01/31 07:06:06;;;;;;;16.60;9.32;;;0.40;99.90;;;;;;5093916;28;20020;-76
2021/01/31 07:08:41;;;;;;;16.58;9.35;;;0.50;99.90;;;;;;5075889;28;20398;-77
2021/01/31 07:11:19;;;;;;;14.18;8.50;;;0.60;99.90;;;;;;5075606;28;20374;-78
2021/01/31 07:14:15;;;;;;;13.88;8.55;;;0.70;99.90;;;;;;5094197;28;20485;-78
2021/01/31 07:16:47;;;;;;;16.05;9.32;;;0.80;99.90;;;;;;5077636;28;20060;-77
2021/01/31 07:19:25;;;;;;;16.20;9.05;;;0.90;99.90;;;;;;5093756;28;20036;-77
2021/01/31 07:22:19;;;;;;;14.65;9.27;;;0.90;99.90;;;;;;5094962;28;20077;-75
2021/01/31 07:25:07;;;;;;;18.25;10.25;;;0.90;99.70;;;;;;5067078;28;20044;-79
2021/01/31 07:27:40;;;;;;;16.27;9.88;;;0.80;99.60;;;;;;5091696;28;20040;-78
2021/01/31 07:30:14;;;;;;;15.05;8.98;;;0.90;99.60;;;;;;5078945;28;20025;-75
2021/01/31 07:32:51;;;;;;;15.73;9.55;;;0.90;99.50;;;;;;5093561;28;20032;-72
2021/01/31 07:35:21;;;;;;;17.08;10.18;;;0.90;99.70;;;;;;5074404;28;20024;-75
2021/01/31 07:37:52;;;;;;;17.63;10.07;;;1.00;99.80;;;;;;5082032;28;20034;-75
2021/01/31 07:40:21;;;;;;;16.63;9.40;;;1.00;99.50;;;;;;5086509;28;20020;-74
2021/01/31 07:42:54;;;;;;;19.35;10.32;;;1.00;99.30;;;;;;5082470;28;20036;-76
2021/01/31 07:45:24;;;;;;;16.65;9.30;;;1.10;99.60;;;;;;5068102;28;20024;-77
2021/01/31 07:48:10;;;;;;;17.40;8.55;;;1.10;99.40;;;;;;5090089;28;20059;-74
2021/01/31 07:50:37;;;;;;;;;;;1.10;98.90;;;;;;5080551;28;20085;-76
2021/01/31 07:53:03;;;;;;;17.23;9.63;;;1.10;99.40;;;;;;5087239;28;19908;-76
2021/01/31 07:55:37;;;;;;;16.10;8.80;;;1.20;99.80;;;;;;5082165;28;20027;-75
2021/01/31 07:58:09;;;;;;;17.00;8.98;;;1.30;99.60;;;;;;5066360;28;20043;-76
2021/01/31 08:00:44;;;;;;;16.10;8.45;;;1.30;99.00;;;;;;5083806;28;20020;-75
2021/01/31 08:03:24;;;;;;;14.77;9.10;;;1.30;98.70;;;;;;5091539;28;20112;-76
2021/01/31 08:06:02;;;;;;;13.65;8.25;;;1.30;98.90;;;;;;5085485;28;20032;-73
2021/01/31 08:08:40;;;;;;;14.18;8.10;;;1.30;98.80;;;;;;5066178;28;20444;-74
2021/01/31 08:11:31;;;;;;;14.05;8.70;;;1.40;98.50;;;;;;5090875;28;20097;-76
2021/01/31 08:13:57;;;;;;;16.77;9.02;;;1.40;98.50;;;;;;5031957;28;20471;-75
2021/01/31 08:16:39;;;;;;;15.43;8.65;;;1.40;98.50;;;;;;5092577;28;20031;-77
2021/01/31 08:19:07;;;;;;;13.75;8.13;;;1.50;98.60;;;;;;5065116;28;20036;-73
2021/01/31 08:22:04;;;;;;;15.82;9.15;;;1.50;98.30;;;;;;5079016;28;20069;-76
2021/01/31 08:25:04;;;;;;;13.15;6.97;;;1.70;98.50;;;;;;5074226;28;20032;-84
2021/01/31 08:27:54;;;;;;;14.70;8.43;;;1.90;98.40;;;;;;5066845;28;20031;-83
2021/01/31 08:30:38;;;;;;;16.00;9.40;;;2.00;98.50;;;;;;5068634;28;20467;-76
2021/01/31 08:33:04;;;;;;;16.65;9.52;;;2.10;98.00;;;;;;5074349;28;20114;-76
2021/01/31 08:35:50;;;;;;;15.25;8.50;;;2.20;97.60;;;;;;5084946;28;20415;-85
2021/01/31 08:38:24;;;;;;;16.17;8.88;;;2.20;97.80;;;;;;5049106;28;20544;-80
2021/01/31 08:41:05;;;;;;;18.53;8.73;;;2.50;98.50;;;;;;5080850;28;20036;-79
2021/01/31 08:43:43;;;;;;;17.17;9.52;;;2.70;98.20;;;;;;5081789;28;20485;-83
2021/01/31 08:46:08;;;;;;;15.30;8.80;;;2.90;98.00;;;;;;5059844;28;20024;-81
2021/01/31 08:48:34;;;;;;;17.45;8.48;;;2.90;96.20;;;;;;5060035;28;20051;-80
2021/01/31 08:51:15;;;;;;;15.65;9.15;;;2.80;96.00;;;;;;5082673;28;20489;-76
2021/01/31 08:53:41;;;;;;;15.75;8.30;;;2.80;96.20;;;;;;5086426;28;20043;-75
2021/01/31 08:56:14;;;;;;;12.77;8.02;;;2.80;95.90;;;;;;5085337;28;20032;-78
2021/01/31 08:58:41;;;;;;;17.55;8.25;;;2.80;95.40;;;;;;5089632;28;20035;-78
2021/01/31 09:01:06;;;;;;;15.07;8.15;;;2.80;95.70;;;;;;5094977;28;20024;-77
2021/01/31 09:03:34;;;;;;;17.42;9.00;;;2.90;95.80;;;;;;5068426;28;20021;-78
2021/01/31 09:06:00;;;;;;;15.23;9.00;;;2.90;95.70;;;;;;5078010;28;20118;-79
2021/01/31 09:08:26;;;;;;;16.13;9.20;;;3.00;95.80;;;;;;5096752;28;20035;-78
2021/01/31 09:10:52;;;;;;;13.45;8.15;;;3.10;95.50;;;;;;5066289;28;20033;-75
2021/01/31 09:13:18;;;;;;;14.30;7.88;;;3.00;94.10;;;;;;5094220;28;20028;-79
2021/01/31 09:15:44;;;;;;;13.95;7.88;;;2.80;93.60;;;;;;5096102;28;20497;-78
2021/01/31 09:18:23;;;;;;;13.73;8.40;;;2.70;94.10;;;;;;5096124;28;20457;-79
2021/01/31 09:20:50;;;;;;;14.18;8.48;;;2.70;94.20;;;;;;5096344;28;20031;-77
2021/01/31 09:23:33;;;;;;;15.52;8.32;;;2.60;93.90;;;;;;5095989;28;20024;-80
2021/01/31 09:25:59;;;;;;;17.10;8.38;;;2.50;94.00;;;;;;5095792;28;20028;-78
2021/01/31 09:28:26;;;;;;;15.88;8.93;;;2.50;94.30;;;;;;5065386;28;20031;-79
2021/01/31 09:30:58;;;;;;;16.30;9.07;;;2.50;94.60;;;;;;5096166;28;20082;-79
2021/01/31 09:33:39;;;;;;;16.60;9.40;;;2.70;95.00;;;;;;5077600;28;20024;-79
2021/01/31 09:36:27;;;;;;;15.85;9.50;;;2.80;95.60;;;;;;5077571;28;20073;-79
2021/01/31 09:38:54;;;;;;;14.80;8.07;;;3.10;95.90;;;;;;5077408;28;20028;-79
2021/01/31 09:41:22;;;;;;;16.25;8.80;;;3.20;95.40;;;;;;5077695;28;20027;-79
2021/01/31 09:43:53;;;;;;;14.40;8.68;;;3.40;95.60;;;;;;5077773;28;20477;-79
2021/01/31 09:46:21;;;;;;;15.10;8.38;;;3.60;96.00;;;;;;5096136;28;20523;-79
2021/01/31 09:48:48;;;;;;;16.58;9.38;;;4.00;96.70;;;;;;5095550;28;20044;-79
2021/01/31 09:51:25;;;;;;;17.85;9.45;;;4.30;96.70;;;;;;5095578;28;20023;-79
2021/01/31 09:53:51;;;;;;;18.67;10.30;;;4.70;96.30;;;;;;5095257;28;20024;-78
2021/01/31 09:56:37;;;;;;;16.80;9.80;;;4.90;95.80;;;;;;5077622;28;20069;-79
2021/01/31 09:59:16;;;;;;;17.30;9.70;;;4.90;94.00;;;;;;5076954;28;20088;-79
2021/01/31 10:01:41;;;;;;;16.70;9.18;;;4.80;92.70;;;;;;5094703;28;20092;-79
2021/01/31 10:04:07;;;;;;;17.05;9.85;;;4.60;92.90;;;;;;5095121;28;20479;-79
2021/01/31 10:06:42;;;;;;;15.60;8.35;;;4.70;93.10;;;;;;5077770;28;20024;-79
2021/01/31 10:09:08;;;;;;;14.90;9.02;;;4.80;93.20;;;;;;5077133;28;20508;-79
2021/01/31 10:11:39;;;;;;;15.50;8.93;;;4.70;92.00;;;;;;5077153;28;20035;-79
2021/01/31 10:14:43;;;;;;;15.88;9.50;;;4.60;91.90;;;;;;5076754;28;20047;-78
2021/01/31 10:17:18;;;;;;;15.40;8.82;;;4.60;92.60;;;;;;5091376;28;20040;-79
2021/01/31 10:19:44;;;;;;;15.30;8.60;;;4.90;93.10;;;;;;5076794;28;20119;-79
2021/01/31 10:22:27;;;;;;;17.38;9.40;;;5.30;94.20;;;;;;5094889;28;20032;-79
2021/01/31 10:24:53;;;;;;;14.50;8.35;;;5.70;94.40;;;;;;5095278;28;20113;-79
2021/01/31 10:27:28;;;;;;;11.48;6.95;;;6.40;95.00;;;;;;5094992;28;20469;-80
2021/01/31 10:30:15;;;;;;;15.40;8.30;;;7.10;94.50;;;;;;5094699;28;20062;-79
2021/01/31 10:32:41;;;;;;;14.00;7.95;;;8.10;93.60;;;;;;5094739;28;20089;-79
2021/01/31 10:35:36;;;;;;;13.90;7.85;;;8.30;89.40;;;;;;5094627;28;20032;-79
2021/01/31 10:38:31;;;;;;;13.07;8.40;;;7.90;87.20;;;;;;5076650;28;20193;-79
2021/01/31 10:40:59;;;;;;;13.85;8.55;;;7.50;85.70;;;;;;5082559;28;20035;-80
2021/01/31 10:43:26;;;;;;;15.65;9.15;;;7.20;85.00;;;;;;5076506;28;20046;-79
2021/01/31 10:45:52;;;;;;;15.48;9.10;;;7.00;85.60;;;;;;5094830;28;20028;-76
2021/01/31 10:48:18;;;;;;;14.20;8.77;;;6.90;86.00;;;;;;5094642;28;20075;-78
2021/01/31 10:50:45;;;;;;;15.68;9.70;;;6.80;85.30;;;;;;5094417;28;20020;-79
2021/01/31 10:53:10;;;;;;;14.98;8.55;;;6.50;84.10;;;;;;5094370;28;20044;-78
2021/01/31 10:55:36;;;;;;;13.50;8.20;;;6.00;82.80;;;;;;5094095;28;20070;-78
2021/01/31 10:58:02;;;;;;;14.05;8.30;;;5.70;83.10;;;;;;5094196;28;20135;-78
2021/01/31 11:00:28;;;;;;;13.85;8.27;;;5.40;84.20;;;;;;5075894;28;20027;-77
2021/01/31 11:02:53;;;;;;;13.52;7.88;;;5.30;84.00;;;;;;5076291;28;20077;-78
2021/01/31 11:05:20;;;;;;;17.13;8.65;;;5.00;83.70;;;;;;5094319;28;20031;-79
2021/01/31 11:07:46;;;;;;;15.57;8.35;;;4.90;84.70;;;;;;5094769;28;20407;-79
2021/01/31 11:10:12;;;;;;;15.63;8.50;;;4.90;86.40;;;;;;5075639;28;20123;-78
2021/01/31 11:12:39;;;;;;;14.70;8.38;;;4.80;85.70;;;;;;5075948;28;20099;-79
2021/01/31 11:15:07;;;;;;;17.67;9.35;;;4.80;86.30;;;;;;5076194;28;20034;-78
2021/01/31 11:17:33;;;;;;;16.00;8.95;;;4.70;86.20;;;;;;5093709;28;20430;-78
2021/01/31 11:19:59;;;;;;;16.80;9.15;;;4.70;86.20;;;;;;5075535;28;20097;-78
2021/01/31 11:22:25;;;;;;;17.60;9.50;;;4.60;86.20;;;;;;5093898;28;20027;-79
2021/01/31 11:24:51;;;;;;;16.48;8.90;;;4.50;85.20;;;;;;5093770;28;20363;-78
2021/01/31 11:27:17;;;;;;;15.40;9.73;;;4.40;85.30;;;;;;5093705;28;20103;-78
2021/01/31 11:29:42;;;;;;;16.48;9.13;;;4.30;85.00;;;;;;5075559;28;20035;-78
2021/01/31 11:32:08;;;;;;;18.45;9.13;;;4.00;84.20;;;;;;5093535;28;20024;-77
2021/01/31 11:34:34;;;;;;;15.43;8.75;;;3.80;84.70;;;;;;5075486;28;20476;-78
2021/01/31 11:37:00;;;;;;;16.52;8.85;;;3.60;84.40;;;;;;5093679;28;20028;-78
2021/01/31 11:39:26;;;;;;;17.05;9.75;;;3.50;84.70;;;;;;5075346;28;20028;-78
2021/01/31 11:41:52;;;;;;;16.35;8.63;;;3.40;84.30;;;;;;5093765;28;20095;-77
2021/01/31 11:44:18;;;;;;;15.82;8.65;;;3.20;84.20;;;;;;5075426;28;20020;-78
2021/01/31 11:46:44;;;;;;;18.63;9.05;;;3.10;84.90;;;;;;5075291;28;20367;-78
2021/01/31 11:49:09;;;;;;;16.95;9.20;;;3.00;85.70;;;;;;5075240;28;20035;-79
2021/01/31 11:51:35;;;;;;;18.50;9.50;;;3.10;86.20;;;;;;5093633;28;20028;-78
2021/01/31 11:54:01;;;;;;;16.85;9.18;;;3.20;87.20;;;;;;5093316;28;20034;-78
2021/01/31 11:56:27;;;;;;;19.20;10.05;;;3.30;87.30;;;;;;5093579;28;20423;-78
2021/01/31 11:58:52;;;;;;;16.83;9.68;;;3.40;87.30;;;;;;5093117;28;20051;-78
2021/01/31 12:01:19;;;;;;;18.73;9.10;;;3.60;87.80;;;;;;5093359;28;20031;-78
2021/01/31 12:03:45;;;;;;;19.83;9.70;;;3.60;87.80;;;;;;5093595;28;20031;-78
2021/01/31 12:06:12;;;;;;;18.92;9.63;;;3.80;88.20;;;;;;5074515;28;20417;-78
2021/01/31 12:08:38;;;;;;;16.35;9.55;;;3.90;87.20;;;;;;5093162;28;20036;-79
2021/01/31 12:11:05;;;;;;;16.27;9.30;;;3.80;85.70;;;;;;5074904;28;20074;-78
2021/01/31 12:13:31;;;;;;;17.38;8.82;;;3.60;84.40;;;;;;5075598;28;20434;-78
2021/01/31 12:15:57;;;;;;;18.83;9.82;;;3.40;84.50;;;;;;5074677;28;20055;-77
2021/01/31 12:18:23;;;;;;;15.90;8.48;;;3.30;84.50;;;;;;5075191;28;20040;-78
2021/01/31 12:20:48;;;;;;;17.00;9.27;;;3.20;84.90;;;;;;5093122;28;20069;-78
2021/01/31 12:23:14;;;;;;;16.90;9.05;;;3.10;85.10;;;;;;5074868;28;20031;-77
2021/01/31 12:25:40;;;;;;;16.63;9.00;;;3.20;86.00;;;;;;5080118;28;20020;-79
2021/01/31 12:28:06;;;;;;;18.10;9.05;;;3.20;85.90;;;;;;5099079;28;20462;-74
2021/01/31 12:30:33;;;;;;;17.77;8.82;;;3.30;86.10;;;;;;5099741;28;20042;-79
2021/01/31 12:33:00;;;;;;;16.33;8.52;;;3.40;86.40;;;;;;5099678;28;20095;-79
2021/01/31 12:35:27;;;;;;;17.40;9.25;;;3.40;85.80;;;;;;5081234;28;20108;-79
2021/01/31 12:37:53;;;;;;;16.08;8.32;;;3.30;84.90;;;;;;5099354;28;20032;-78
2021/01/31 12:40:20;;;;;;;17.80;8.93;;;3.20;84.90;;;;;;5081524;28;20024;-78
2021/01/31 12:42:46;;;;;;;16.08;8.88;;;3.10;84.90;;;;;;5099820;28;20024;-78
2021/01/31 12:45:13;;;;;;;18.48;9.43;;;3.00;85.10;;;;;;5099563;28;20028;-77
2021/01/31 12:47:39;;;;;;;17.20;9.10;;;3.00;84.80;;;;;;5099729;28;20098;-78
2021/01/31 12:50:06;;;;;;;17.55;10.63;;;2.90;84.80;;;;;;5081122;28;20062;-77
2021/01/31 12:52:32;;;;;;;16.35;9.45;;;2.90;85.30;;;;;;5099274;28;20428;-78
2021/01/31 12:54:57;;;;;;;18.33;9.65;;;2.90;85.10;;;;;;5099623;28;20023;-77
2021/01/31 12:57:23;;;;;;;19.23;10.35;;;2.90;85.50;;;;;;5099716;28;20062;-78
2021/01/31 12:59:49;;;;;;;20.95;11.60;;;2.80;85.00;;;;;;5099858;28;20046;-74
2021/01/31 13:02:15;;;;;;;28.20;12.82;;;2.70;85.20;;;;;;5081244;28;20111;-78
2021/01/31 13:04:41;;;;;;;21.10;10.60;;;2.70;85.50;;;;;;5081362;28;20027;-78
2021/01/31 13:07:07;;;;;;;21.90;10.77;;;2.70;85.20;;;;;;5081430;28;20024;-78